Flemington, MO (65650)

09:39 CST le 28 novembre 2014 (GMT -0600)
7 Miles NE of Bolivar | Change Station
CLOSE
Current Station
Stations météorologiques personnelles
Location: Bolivar, MO
Altitude: 1073 ft
Stations météo à proximité

Alt. 1073 ft 37.67 °N, 93.35 °W | Updated 1 minute ago

Ciel dégagé
Ciel dégagé
46.4 ° F
Paraît 41 ° F
N
10.4
Vent Variable Vent de SSO

Aujourd'hui
Haut(e) -- | Bas -- ° F
--% Risque de précip.
Hier
Haut(e) -- | Bas -- ° F
Precip. -- pouce
7:07 AM 4:55 PM
Lune montante, 41% visible
Pression 30.12 pouce
Visibilité 10.0 Miles terrestres
Nuages Ciel dégagé
Refroidissement éolien 41 ° F
Point de rosée 33 ° F
Humidité 59%
Précipitations 0.00 pouce
Profondeur de la couche neigeuse Non disponible.
UV 1 sur 12
Pollen 3.50 sur 12
Qualité de l'air Non disponible.
Flu Activity Non disponible.
METAR KSGF 281452Z 18017G27KT 10SM CLR 05/M03 A3010 RMK AO2 PK WND 18027/1446 SLP200 T00501028 58023

More Conditions Fewer Conditions

Pression 30.12 pouce
Visibilité 10.0 Miles terrestres
Nuages Ciel dégagé
Refroidissement éolien 41 ° F
Point de rosée 33 ° F
Humidité 59%
Précipitations 0.00 pouce
Profondeur de la couche neigeuse Non disponible.
UV 1 sur 12
Pollen 3.50 sur 12
Qualité de l'air Non disponible.
Flu Activity Non disponible.
METAR KSGF 281452Z 18017G27KT 10SM CLR 05/M03 A3010 RMK AO2 PK WND 18027/1446 SLP200 T00501028 58023

More Conditions Fewer Conditions

10-Day Weather Forecast

Almanac

Astronomie

Nov. 28, 2014 Lever Coucher
Temps réel
Crépuscule civil
Crépuscule nautique
Crépuscule astronomique
Lune
Durée de lumière visible
Longueur du jour
Tomorrow will be .
, % of the Moon is Illuminated

Extrêmes aujourd'hui

State Highs State Lows

Community

WunderPhotos

Upload Photos

1,774,229 Photos téléchargées !

WunderBlogs® & News

Nearby

Qualité de l'air

  Qualité de l'air Indice de la qualité de l'air Polluant
Not available.

Épaisseur de neige

Station Depth Altitude

Activité sismique

Ville Distance Mag. Time & Date
Minimum magnitude displayed is 2.5.

Températures des eaux côtières

Lieu Température

Stations météo à proximité